Latest Weather Observations for Bankstown

IDN60901

Issued at 10:55 pm EST Thursday 24 July 2014 (issued every 10 minutes, with the page automatically refreshed every 10 minutes)

About weather observations | Map of Sydney area stations | Latest observations for Sydney area | Other Formats
Station Details ID: 066137 Name: BANKSTOWN AIRPORT AWS Lat: -33.92 Lon: 150.99 Height: 6.5 m
Data from the previous 72 hours. | See also: Recent months at Bankstown
Date/Time
EST
Tmp

°C
App
Tmp
°C
Dew
Point
°C
Rel
Hum
%
Delta-T

°C
Wind Press
QNH
hPa
Press
MSL
hPa
Rain
since
9 am
mm
Dir
 
Spd
km/h
Gust
km/h
Spd
kts
Gust
kts
24/10:30pm 9.6 8.5 7.0 84 1.2 ESE 2 6 1 3 1021.0 - 0.0
24/10:00pm 9.3 8.4 6.2 81 1.4 CALM 0 0 0 0 1021.0 1021.0 0.0
24/09:30pm 10.5 9.9 7.4 81 1.5 CALM 0 0 0 0 1021.0 - 0.0
24/09:00pm 11.1 10.0 7.0 76 1.9 NNW 2 7 1 4 1020.8 1020.8 0.0
24/08:30pm 11.1 9.3 7.2 77 1.9 NNW 6 7 3 4 1020.7 - 0.0
24/08:00pm 11.5 10.0 7.0 74 2.1 NNW 4 6 2 3 1020.4 1020.4 0.0
24/07:30pm 12.1 11.4 6.8 70 2.5 CALM 0 7 0 4 1020.2 - 0.0
24/07:00pm 12.7 11.9 6.5 66 2.9 CALM 0 0 0 0 1020.0 1020.0 0.0
24/06:30pm 14.8 13.8 7.4 61 3.6 N 2 6 1 3 1019.8 - 0.0
24/06:00pm 15.3 14.5 8.1 62 3.6 N 2 7 1 4 1019.5 1019.5 0.0
24/05:30pm 15.1 14.6 7.9 62 3.6 CALM 0 0 0 0 1019.3 - 0.0
24/05:00pm 16.2 15.7 7.7 57 4.2 CALM 0 6 0 3 1019.1 1019.1 0.0
24/04:30pm 16.5 14.6 7.4 55 4.5 NNW 7 11 4 6 1019.1 - 0.0
24/04:00pm 16.8 14.8 7.2 53 4.8 NNW 7 9 4 5 1019.1 1019.1 0.0
24/03:30pm 17.0 14.6 7.1 52 4.9 NNW 9 13 5 7 1018.9 - 0.0
24/03:00pm 18.3 15.7 7.7 50 5.4 NNW 11 15 6 8 1018.9 1018.9 0.0
24/02:30pm 17.2 14.5 7.5 53 4.9 NNW 11 17 6 9 1019.0 - 0.0
24/02:00pm 16.2 13.6 7.7 57 4.2 N 11 15 6 8 1019.4 1019.4 0.0
24/01:30pm 16.0 13.5 8.2 60 3.9 N 11 15 6 8 1019.7 - 0.0
24/01:00pm 15.1 13.5 8.6 65 3.3 NNW 7 11 4 6 1020.2 1020.2 0.0
24/12:30pm 14.7 12.8 8.9 68 2.9 NW 9 13 5 7 1020.8 - 0.0
24/12:00pm 14.1 12.6 8.5 69 2.8 NNW 6 7 3 4 1021.2 1021.2 0.0
24/11:30am 14.5 12.5 8.5 67 3.0 NW 9 13 5 7 1021.9 - 0.0
24/11:00am 13.9 11.9 8.7 71 2.6 NW 9 13 5 7 1022.4 1022.4 0.0
24/10:30am 12.6 10.2 8.5 76 2.0 NW 11 13 6 7 1022.9 - 0.0
24/10:00am 11.6 10.1 8.3 80 1.6 WNW 6 7 3 4 1022.9 1022.9 0.0
24/09:30am 10.7 9.0 8.3 85 1.2 WNW 7 9 4 5 1022.9 - 0.0
24/09:00am 9.8 8.1 8.2 90 0.8 NW 7 9 4 5 1022.7 1022.7 0.0
24/08:30am 9.1 7.6 8.3 95 0.4 N 6 9 3 5 1022.3 - 0.0
24/08:00am 6.7 4.4 5.8 94 0.4 NNW 7 7 4 4 1022.4 1022.4 0.0
24/07:30am 5.9 4.8 5.0 94 0.4 CALM 0 0 0 0 1022.3 - 0.0
24/07:00am 4.4 3.0 3.5 94 0.4 CALM 0 0 0 0 1022.1 1022.1 0.0
24/06:30am 4.6 3.2 3.7 94 0.4 CALM 0 0 0 0 1022.0 - 0.0
24/06:00am 4.5 3.1 3.6 94 0.4 NNW 0 6 0 3 1021.6 1021.6 0.0
24/05:41am 3.9 2.4 2.9 93 0.4 CALM 0 0 0 0 1021.6 - 0.0
24/05:30am 3.9 2.4 2.9 93 0.4 CALM 0 0 0 0 1021.3 - 0.0
24/05:08am 4.4 3.0 3.4 93 0.4 CALM 0 0 0 0 1021.2 - 0.0
24/05:00am 4.6 3.2 3.6 93 0.4 CALM 0 0 0 0 1021.1 1021.1 0.0
24/04:50am 5.2 3.9 4.3 94 0.4 CALM 0 0 0 0 1021.1 - 0.0
24/04:30am 4.4 3.0 3.4 93 0.4 CALM 0 0 0 0 1021.2 - 0.0
24/04:09am 4.6 3.2 3.6 93 0.4 CALM 0 0 0 0 1021.2 - 0.0
24/04:00am 4.4 3.0 3.4 93 0.4 CALM 0 0 0 0 1021.1 1021.1 0.0
24/03:30am 5.0 3.7 4.0 93 0.4 CALM 0 0 0 0 1021.1 - 0.0
24/03:28am 5.3 4.0 4.3 93 0.4 CALM 0 0 0 0 1021.1 - 0.0
24/03:24am 4.9 3.5 3.7 92 0.5 CALM 0 0 0 0 1021.2 - 0.0
24/03:00am 5.3 4.0 4.3 93 0.4 CALM 0 0 0 0 1021.4 1021.4 0.0
24/02:30am 6.0 4.8 4.8 92 0.5 CALM 0 0 0 0 1021.4 - 0.0
24/02:11am 6.2 5.1 5.0 92 0.5 CALM 0 0 0 0 1021.6 - 0.0
24/02:00am 6.3 5.2 5.1 92 0.5 CALM 0 0 0 0 1021.5 1021.5 0.0
24/01:35am 5.8 4.6 4.4 91 0.6 CALM 0 0 0 0 1021.9 - 0.0
24/01:30am 5.9 4.7 4.7 92 0.5 CALM 0 0 0 0 1022.0 - 0.0
24/01:21am 6.0 4.8 4.8 92 0.5 CALM 0 0 0 0 1022.1 - 0.0
24/01:00am 7.0 6.0 5.8 92 0.5 CALM 0 0 0 0 1022.3 1022.3 0.0
24/12:30am 6.8 5.8 5.4 91 0.6 CALM 0 0 0 0 1022.4 - 0.0
24/12:00am 6.8 5.8 5.4 91 0.6 NNW 0 0 0 0 1022.5 1022.5 0.0
 
Date/Time
EST
Tmp

°C
App
Tmp
°C
Dew
Point
°C
Rel
Hum
%
Delta-T

°C
Wind Press
QNH
hPa
Press
MSL
hPa
Rain
since
9 am
mm
Dir
 
Spd
km/h
Gust
km/h
Spd
kts
Gust
kts
23/11:30pm 6.8 5.8 5.4 91 0.6 CALM 0 0 0 0 1022.8 - 0.0
23/11:20pm 7.6 6.7 6.2 91 0.6 CALM 0 0 0 0 1022.9 - 0.0
23/11:00pm 7.2 6.2 5.7 90 0.7 CALM 0 0 0 0 1022.8 1022.8 0.0
23/10:30pm 7.6 6.7 5.9 89 0.8 CALM 0 0 0 0 1023.0 - 0.0
23/10:13pm 7.6 6.6 5.7 88 0.9 CALM 0 0 0 0 1023.2 - 0.0
23/10:00pm 8.0 7.1 6.0 87 0.9 CALM 0 0 0 0 1023.3 1023.3 0.0
23/09:30pm 8.9 8.2 6.9 87 0.9 CALM 0 0 0 0 1023.4 - 0.0
23/09:00pm 8.8 8.0 6.6 86 1.0 CALM 0 0 0 0 1023.2 1023.2 0.0
23/08:30pm 9.3 8.5 6.6 83 1.3 CALM 0 0 0 0 1022.9 - 0.0
23/08:00pm 10.3 9.7 7.2 81 1.5 CALM 0 0 0 0 1022.8 1022.8 0.0
23/07:30pm 11.5 11.0 8.0 79 1.7 CALM 0 0 0 0 1022.6 - 0.0
23/07:00pm 11.1 9.9 6.6 74 2.1 E 2 7 1 4 1022.4 1022.4 0.0
23/06:30pm 13.8 12.2 8.0 68 2.9 ENE 6 9 3 5 1022.3 - 0.0
23/06:00pm 14.6 12.8 8.1 65 3.2 ESE 7 9 4 5 1022.2 1022.2 0.0
23/05:30pm 14.9 12.3 7.9 63 3.5 E 11 15 6 8 1021.9 - 0.0
23/05:00pm 15.4 12.4 7.9 61 3.7 E 13 19 7 10 1021.7 1021.7 0.0
23/04:30pm 15.8 12.4 7.8 59 4.0 E 15 20 8 11 1021.5 - 0.0
23/04:00pm 16.4 12.6 7.6 56 4.4 E 17 19 9 10 1021.4 1021.4 0.0
23/03:30pm 17.8 15.4 5.1 43 6.1 N 7 11 4 6 1021.4 - 0.0
23/03:00pm 18.2 15.6 6.1 45 5.9 SSE 9 11 5 6 1021.3 1021.3 0.0
23/02:30pm 17.2 15.0 5.5 46 5.6 SW 6 11 3 6 1021.5 - 0.0
23/02:00pm 17.0 15.6 5.6 47 5.5 N 2 9 1 5 1021.7 1021.7 0.0
23/01:30pm 17.1 14.5 6.3 49 5.3 NW 9 11 5 6 1022.1 - 0.0
23/01:00pm 17.8 15.9 6.7 48 5.5 N 6 11 3 6 1022.4 1022.4 0.0
23/12:30pm 16.3 14.3 6.4 52 4.8 W 6 9 3 5 1023.1 - 0.0
23/12:00pm 16.5 14.4 6.6 52 4.8 NW 7 13 4 7 1023.6 1023.6 0.0
23/11:30am 16.6 14.8 7.0 53 4.8 N 6 11 3 6 1024.4 - 0.0
23/11:00am 15.8 14.5 7.6 58 4.1 WSW 4 9 2 5 1025.1 1025.1 0.0
23/10:30am 14.9 13.7 8.2 64 3.4 WSW 4 9 2 5 1025.5 - 0.0
23/10:00am 14.1 12.1 8.5 69 2.8 NW 9 13 5 7 1025.7 1025.7 0.0
23/09:30am 12.1 9.9 7.8 75 2.1 NW 9 13 5 7 1025.7 - 0.0
23/09:00am 11.1 9.2 9.2 88 0.9 WNW 9 17 5 9 1025.7 1025.7 0.0
23/08:30am 9.1 7.9 8.2 94 0.4 NW 4 7 2 4 1025.4 - 0.0
23/08:00am 8.1 6.3 7.3 95 0.4 NNW 6 7 3 4 1025.3 1025.3 0.0
23/07:45am 7.2 5.1 6.5 95 0.3 NNW 7 9 4 5 1025.2 - 0.0
23/07:30am 5.6 3.3 4.7 94 0.4 NNW 6 7 3 4 1025.0 - 0.0
23/07:25am 5.1 2.7 4.2 94 0.4 NNW 6 7 3 4 1024.9 - 0.0
23/07:20am 4.5 2.0 3.6 94 0.4 NNW 6 7 3 4 1024.8 - 0.0
23/07:00am 5.2 2.8 4.3 94 0.4 NNW 6 7 3 4 1024.7 1024.7 0.0
23/06:30am 4.6 3.2 3.6 93 0.4 CALM 0 0 0 0 1024.3 - 0.0
23/06:09am 5.5 3.5 4.6 94 0.4 NNW 4 6 2 3 1024.2 - 0.0
23/06:00am 5.6 3.1 4.7 94 0.4 NNW 7 9 4 5 1024.1 1024.1 0.0
23/05:46am 6.4 4.2 5.5 94 0.4 W 6 7 3 4 1023.8 - 0.0
23/05:30am 5.8 3.5 4.9 94 0.4 W 6 6 3 3 1023.7 - 0.0
23/05:03am 5.6 4.4 4.6 93 0.4 CALM 0 0 0 0 1023.6 - 0.0
23/05:01am 5.6 4.4 4.6 93 0.4 CALM 0 0 0 0 1023.6 - 0.0
23/05:00am 5.5 4.3 4.5 93 0.4 CALM 0 0 0 0 1023.6 1023.6 0.0
23/04:30am 5.5 4.3 4.5 93 0.4 CALM 0 0 0 0 1023.5 - 0.0
23/04:00am 5.3 4.0 4.1 92 0.5 CALM 0 0 0 0 1023.3 1023.3 0.0
23/03:44am 4.9 3.5 3.7 92 0.5 CALM 0 0 0 0 1023.3 - 0.0
23/03:33am 6.0 4.8 4.8 92 0.5 CALM 0 0 0 0 1023.3 - 0.0
23/03:30am 6.2 5.1 5.0 92 0.5 CALM 0 0 0 0 1023.3 - 0.0
23/03:13am 6.5 5.4 5.3 92 0.5 CALM 0 0 0 0 1023.4 - 0.0
23/03:00am 6.3 5.2 5.1 92 0.5 CALM 0 0 0 0 1023.6 1023.6 0.0
23/02:30am 7.4 6.1 6.2 92 0.5 W 2 7 1 4 1023.9 - 0.0
23/02:25am 7.7 5.8 6.6 93 0.5 W 6 9 3 5 1023.9 - 0.0
23/02:00am 6.7 5.6 5.3 91 0.6 CALM 0 0 0 0 1023.9 1023.9 0.0
23/01:57am 6.7 5.6 5.3 91 0.6 CALM 0 0 0 0 1023.9 - 0.0
23/01:30am 6.5 5.0 5.0 90 0.7 W 2 9 1 5 1024.0 - 0.0
23/01:16am 7.1 6.1 5.6 90 0.7 CALM 0 0 0 0 1024.1 - 0.0
23/01:00am 7.6 6.7 6.1 90 0.7 CALM 0 0 0 0 1024.2 1024.2 0.0
23/12:57am 7.6 6.7 6.1 90 0.7 CALM 0 0 0 0 1024.1 - 0.0
23/12:30am 7.7 6.8 6.2 90 0.7 CALM 0 0 0 0 1024.0 - 0.0
23/12:00am 8.4 7.7 6.9 90 0.7 CALM 0 0 0 0 1024.1 1024.1 0.0
 
Date/Time
EST
Tmp

°C
App
Tmp
°C
Dew
Point
°C
Rel
Hum
%
Delta-T

°C
Wind Press
QNH
hPa
Press
MSL
hPa
Rain
since
9 am
mm
Dir
 
Spd
km/h
Gust
km/h
Spd
kts
Gust
kts
22/11:30pm 9.2 8.6 7.6 90 0.8 CALM 0 0 0 0 1024.3 - 0.0
22/11:00pm 9.2 8.6 7.6 90 0.8 CALM 0 0 0 0 1024.5 1024.5 0.0
22/10:30pm 8.7 8.0 7.0 89 0.8 CALM 0 0 0 0 1024.3 - 0.0
22/10:00pm 9.7 9.3 8.1 90 0.8 CALM 0 0 0 0 1024.3 1024.3 0.0
22/09:30pm 9.7 9.3 8.3 91 0.7 CALM 0 0 0 0 1024.4 - 0.0
22/09:00pm 9.0 8.4 7.5 90 0.7 CALM 0 0 0 0 1024.2 1024.2 0.0
22/08:49pm 9.2 8.6 7.6 90 0.8 CALM 0 0 0 0 1024.2 - 0.0
22/08:30pm 8.5 7.7 6.6 88 0.9 CALM 0 0 0 0 1024.3 - 0.0
22/08:28pm 8.5 7.7 6.5 87 0.9 CALM 0 0 0 0 1024.3 - 0.0
22/08:00pm 9.9 9.3 7.5 85 1.1 CALM 0 0 0 0 1024.4 1024.4 0.0
22/07:30pm 10.1 9.5 7.3 83 1.3 CALM 0 0 0 0 1024.2 - 0.0
22/07:00pm 11.3 10.9 8.2 81 1.5 CALM 0 0 0 0 1023.8 1023.8 0.0
22/06:30pm 11.4 10.2 6.5 72 2.3 E 2 6 1 3 1023.5 - 0.0
22/06:00pm 14.0 12.1 9.0 72 2.5 ESE 9 11 5 6 1023.2 1023.2 0.0
22/05:30pm 14.6 11.9 9.0 69 2.9 ESE 13 19 7 10 1022.9 - 0.0
22/05:00pm 15.3 12.4 8.3 63 3.5 ESE 13 19 7 10 1022.7 1022.7 0.0
22/04:30pm 16.0 12.3 8.0 59 4.0 ESE 17 20 9 11 1022.4 - 0.0
22/04:00pm 16.6 12.9 8.1 57 4.3 ESE 17 22 9 12 1022.3 1022.3 0.0
22/03:30pm 17.0 13.6 7.6 54 4.7 ESE 15 20 8 11 1022.2 - 0.0
22/03:00pm 20.3 17.2 8.9 48 6.0 SE 15 20 8 11 1022.1 1022.1 0.0
22/02:30pm 17.8 15.4 7.0 49 5.4 E 9 19 5 10 1022.0 - 0.0
22/02:00pm 16.6 13.5 7.3 54 4.6 E 13 20 7 11 1022.0 1022.0 0.0
22/01:30pm 17.4 13.3 6.3 48 5.5 ESE 17 20 9 11 1022.2 - 0.0
22/01:00pm 18.5 16.3 6.4 45 6.0 N 7 13 4 7 1022.3 1022.3 0.0
22/12:30pm 17.5 15.4 5.8 46 5.7 ENE 6 11 3 6 1022.8 - 0.0
22/12:00pm 17.8 16.0 7.0 49 5.4 N 6 7 3 4 1023.4 1023.4 0.0
22/11:30am 16.4 14.4 7.3 55 4.5 SW 7 13 4 7 1024.1 - 0.0
22/11:00am 15.9 13.5 7.1 56 4.3 WSW 9 17 5 9 1024.5 1024.5 0.0
22/10:30am 14.6 11.4 6.9 60 3.8 WSW 13 17 7 9 1025.0 - 0.0
22/10:00am 13.7 10.5 7.0 64 3.2 S 13 17 7 9 1025.2 1025.2 0.0
22/09:30am 12.8 10.1 7.3 69 2.7 WSW 11 17 6 9 1025.0 - 0.0
22/09:00am 11.4 7.9 7.1 75 2.0 W 15 20 8 11 1024.8 1024.8 0.0
22/08:30am 9.8 8.0 7.9 88 0.9 W 7 9 4 5 1024.8 - 0.0
22/08:00am 7.7 6.1 6.3 91 0.6 WSW 4 7 2 4 1024.8 1024.8 0.0
22/07:30am 7.1 6.2 5.9 92 0.5 CALM 0 0 0 0 1024.7 - 0.0
22/07:00am 7.2 5.9 6.0 92 0.5 NW 2 7 1 4 1024.4 1024.4 0.0
22/06:30am 7.2 5.0 6.0 92 0.5 NW 7 9 4 5 1024.2 - 0.0
22/06:00am 7.0 4.0 5.8 92 0.5 NNW 11 13 6 7 1024.1 1024.1 0.0
22/05:30am 7.2 5.1 5.8 91 0.6 NW 6 7 3 4 1023.8 - 0.0
22/05:00am 7.6 6.3 6.2 91 0.6 WNW 2 6 1 3 1023.3 1023.3 0.0
22/04:30am 8.3 7.2 6.9 91 0.6 WNW 2 6 1 3 1023.3 - 0.0
22/04:00am 8.0 6.1 6.6 91 0.6 WNW 6 7 3 4 1023.3 1023.3 0.0
22/03:30am 7.6 6.7 6.2 91 0.6 CALM 0 0 0 0 1023.2 - 0.0
22/03:00am 8.0 6.8 6.6 91 0.6 WNW 2 6 1 3 1023.2 1023.2 0.0
22/02:30am 7.8 5.6 6.4 91 0.6 NW 7 9 4 5 1023.3 - 0.0
22/02:00am 8.4 7.7 7.0 91 0.6 CALM 0 0 0 0 1023.5 1023.5 0.0
22/01:30am 8.5 7.8 7.1 91 0.7 CALM 0 0 0 0 1023.8 - 0.0
22/01:00am 8.4 7.7 7.0 91 0.6 CALM 0 0 0 0 1024.0 1024.0 0.0
22/12:30am 8.5 7.8 7.1 91 0.7 CALM 0 0 0 0 1024.2 - 0.0
22/12:00am 8.5 7.1 7.1 91 0.7 WNW 4 9 2 5 1024.2 1024.2 0.0
 
Date/Time
EST
Tmp

°C
App
Tmp
°C
Dew
Point
°C
Rel
Hum
%
Delta-T

°C
Wind Press
QNH
hPa
Press
MSL
hPa
Rain
since
9 am
mm
Dir
 
Spd
km/h
Gust
km/h
Spd
kts
Gust
kts
21/11:30pm 8.9 8.3 7.5 91 0.7 CALM 0 0 0 0 1024.3 - 0.0
21/11:00pm 8.9 8.3 7.5 91 0.7 CALM 0 0 0 0 1024.5 1024.5 0.0

Latest Capital City Observations: Canberra | Sydney | Melbourne | Brisbane | Adelaide | Perth | Hobart | Darwin

Other Formats:

Comma delimited format used in spreadsheet applications
http://www.bom.gov.au/fwo/IDN60901/IDN60901.94765.axf

JavaScript Object Notation format (JSON) in row-major order
http://www.bom.gov.au/fwo/IDN60901/IDN60901.94765.json